Time;durP1;ratioP1;P1;durP2;ratioP2;P2;SDS_P1;SDS_P2;PMS_P1;PMS_P2;Temp;Humidity;BMP_temperature;BMP_pressure;BME280_temperature;BME280_humidity;BME280_pressure;Samples;Min_cycle;Max_cycle;Signal;HPM_P1;HPM_P2
2023/05/16 00:01:28;;;;;;;;;6.75;4.00;;;;;13.02;57.35;101421.63;4994626;28;45629;-60
2023/05/16 00:03:55;;;;;;;;;5.80;5.00;;;;;12.97;57.58;101429.66;4994165;28;45859;-61
2023/05/16 00:06:21;;;;;;;;;6.40;5.20;;;;;12.82;57.25;101415.25;4994116;28;45484;-61
2023/05/16 00:08:47;;;;;;;;;3.50;2.00;;;;;12.88;57.64;101426.28;4994741;28;46016;-60
2023/05/16 00:11:13;;;;;;;;;3.80;3.00;;;;;12.92;57.14;101429.44;4976972;28;45477;-60
2023/05/16 00:13:41;;;;;;;;;5.25;4.25;;;;;12.88;57.11;101431.78;4994274;28;46492;-61
2023/05/16 00:16:06;;;;;;;;;6.40;4.60;;;;;12.72;57.49;101407.41;4976792;28;45442;-60
2023/05/16 00:18:32;;;;;;;;;4.75;4.00;;;;;12.77;57.73;101424.16;5009538;28;45350;-61
2023/05/16 00:20:58;;;;;;;;;7.50;5.00;;;;;12.85;57.28;101418.44;4994458;28;45323;-61
2023/05/16 00:23:23;;;;;;;;;6.00;3.00;;;;;12.86;57.58;101424.81;4970466;28;46396;-61
2023/05/16 00:25:49;;;;;;;;;4.50;4.00;;;;;12.81;57.43;101430.09;4973337;28;45393;-61
2023/05/16 00:28:14;;;;;;;;;7.75;4.00;;;;;12.73;57.36;101423.75;4993503;28;45688;-61
2023/05/16 00:30:40;;;;;;;;;6.00;4.00;;;;;12.77;57.22;101418.66;4994425;28;45525;-61
2023/05/16 00:33:08;;;;;;;;;6.50;2.00;;;;;12.74;57.08;101425.44;4993479;28;47381;-61
2023/05/16 00:35:34;;;;;;;;;5.20;3.00;;;;;12.75;57.21;101420.75;4992218;28;46191;-61
2023/05/16 00:38:00;;;;;;;;;4.00;4.00;;;;;12.74;57.04;101427.31;4978063;28;45410;-62
2023/05/16 00:40:25;;;;;;;;;5.25;3.75;;;;;12.66;57.34;101424.78;4997317;28;45364;-60
2023/05/16 00:42:50;;;;;;;;;5.00;3.75;;;;;12.64;57.28;101418.63;4997191;28;46296;-61
2023/05/16 00:45:16;;;;;;;;;3.75;3.50;;;;;12.63;57.41;101425.22;4996784;28;45186;-62
2023/05/16 00:47:41;;;;;;;;;3.50;3.50;;;;;12.59;57.40;101425.59;4997534;28;45353;-60
2023/05/16 00:50:07;;;;;;;;;2.00;2.00;;;;;12.55;57.62;101420.72;4997559;28;45779;-60
2023/05/16 00:52:33;;;;;;;;;2.00;2.00;;;;;12.52;57.45;101422.00;4997054;28;45377;-61
2023/05/16 00:54:59;;;;;;;;;8.50;5.00;;;;;12.52;57.79;101415.63;4995878;28;45984;-60
2023/05/16 00:57:24;;;;;;;;;4.00;4.00;;;;;12.46;57.50;101411.81;4996846;28;45368;-60
2023/05/16 00:59:50;;;;;;;;;4.75;3.00;;;;;12.41;57.66;101425.34;4997313;28;45381;-59
2023/05/16 01:02:15;;;;;;;;;4.00;3.00;;;;;12.35;57.56;101407.75;4996828;28;45626;-61
2023/05/16 01:04:42;;;;;;;;;3.25;3.00;;;;;12.38;57.21;101415.59;4978912;28;45431;-62
2023/05/16 01:07:07;;;;;;;;;4.40;3.80;;;;;12.40;57.67;101430.03;4995522;28;45447;-62
2023/05/16 01:09:33;;;;;;;;;3.00;3.00;;;;;12.42;57.56;101427.03;4996890;28;45625;-62
2023/05/16 01:12:10;;;;;;;;;4.25;3.00;;;;;12.31;57.73;101432.09;4978884;28;45580;-62
2023/05/16 01:15:08;;;;;;;;;4.20;3.00;;;;;12.32;57.79;101428.28;4996738;28;45416;-62
2023/05/16 01:17:58;;;;;;;;;3.60;2.80;;;;;12.27;57.48;101433.56;4996584;28;45172;-62
2023/05/16 01:20:33;;;;;;;;;2.20;2.20;;;;;12.24;57.63;101417.47;4996011;28;45541;-62
2023/05/16 01:23:06;;;;;;;;;2.00;2.00;;;;;12.18;57.61;101410.88;4995058;28;47631;-63
2023/05/16 01:25:59;;;;;;;;;4.80;3.60;;;;;12.30;57.52;101422.16;4996290;28;45474;-62
2023/05/16 01:28:25;;;;;;;;;4.60;3.20;;;;;12.32;57.80;101427.44;4996638;28;45710;-60
2023/05/16 01:30:50;;;;;;;;;4.20;3.60;;;;;12.41;57.48;101430.84;4979192;28;45367;-61
2023/05/16 01:33:16;;;;;;;;;4.75;2.00;;;;;12.26;57.61;101417.25;4978998;28;45774;-62
2023/05/16 01:36:05;;;;;;;;;4.75;4.00;;;;;12.25;57.50;101432.06;4996401;28;45312;-62
2023/05/16 01:39:06;;;;;;;;;4.00;2.40;;;;;12.18;57.45;101426.56;4991312;28;45334;-61
2023/05/16 01:41:41;;;;;;;;;6.60;3.60;;;;;12.15;57.73;101429.69;4965424;28;45504;-61
2023/05/16 01:44:26;;;;;;;;;2.60;2.00;;;;;12.11;57.65;101426.50;4996519;28;45455;-61
2023/05/16 01:46:55;;;;;;;;;3.40;3.00;;;;;12.15;57.88;101432.47;4996192;28;45367;-62
2023/05/16 01:49:54;;;;;;;;;2.40;2.40;;;;;12.11;57.83;101442.19;5011499;28;45481;-61
2023/05/16 01:52:41;;;;;;;;;6.40;4.00;;;;;12.13;57.77;101440.94;4996847;28;45451;-60
2023/05/16 01:55:14;;;;;;;;;3.00;2.00;;;;;12.09;57.99;101434.13;5011116;28;46815;-61
2023/05/16 01:57:39;;;;;;;;;3.80;3.40;;;;;12.00;57.92;101440.84;4996180;28;45466;-61
2023/05/16 02:00:05;;;;;;;;;3.25;3.25;;;;;12.04;58.00;101443.00;5011321;28;45632;-60
2023/05/16 02:02:31;;;;;;;;;4.00;2.80;;;;;12.03;58.04;101445.94;4970019;28;45569;-60
2023/05/16 02:04:56;;;;;;;;;3.00;3.00;;;;;12.03;58.16;101430.31;4995862;28;45644;-59
2023/05/16 02:07:22;;;;;;;;;5.00;3.50;;;;;12.13;57.55;101443.69;4978655;28;45316;-59
2023/05/16 02:09:47;;;;;;;;;1.25;1.25;;;;;12.03;57.74;101435.81;4996055;28;45418;-61
2023/05/16 02:12:13;;;;;;;;;3.00;1.75;;;;;12.05;57.64;101435.59;4996029;28;45349;-61
2023/05/16 02:14:38;;;;;;;;;2.00;2.00;;;;;12.09;57.56;101449.78;4996105;28;45990;-59
2023/05/16 02:17:04;;;;;;;;;4.75;2.50;;;;;12.00;57.73;101447.19;4977561;28;45401;-61
2023/05/16 02:19:30;;;;;;;;;3.20;2.00;;;;;11.99;57.97;101445.50;4996288;28;45333;-60
2023/05/16 02:21:56;;;;;;;;;3.00;1.75;;;;;12.03;57.79;101451.44;4996069;28;45737;-62
2023/05/16 02:24:21;;;;;;;;;3.25;3.25;;;;;11.96;57.69;101450.56;4995750;28;45571;-61
2023/05/16 02:26:47;;;;;;;;;3.50;2.00;;;;;11.88;57.77;101446.91;5010577;28;46228;-61
2023/05/16 02:29:12;;;;;;;;;4.00;3.00;;;;;11.86;58.20;101445.44;4995407;28;45387;-61
2023/05/16 02:31:37;;;;;;;;;3.50;3.25;;;;;11.98;57.79;101448.44;4995967;28;45249;-61
2023/05/16 02:34:03;;;;;;;;;4.00;3.00;;;;;12.02;57.65;101445.06;4995140;28;46385;-61
2023/05/16 02:36:29;;;;;;;;;3.75;3.00;;;;;11.96;57.98;101445.06;4995397;28;45227;-61
2023/05/16 02:38:54;;;;;;;;;5.00;1.25;;;;;11.99;57.33;101448.25;4995938;28;45377;-60
2023/05/16 02:41:21;;;;;;;;;2.25;1.00;;;;;11.87;57.63;101427.88;4995642;28;45549;-62
2023/05/16 02:43:47;;;;;;;;;4.40;1.80;;;;;12.01;57.63;101448.03;4995220;28;46627;-63
2023/05/16 02:46:26;;;;;;;;;3.80;3.00;;;;;11.92;57.72;101450.13;4995030;28;45458;-60
2023/05/16 02:48:52;;;;;;;;;8.20;2.80;;;;;11.86;58.24;101449.03;4995116;28;45375;-61
2023/05/16 02:51:19;;;;;;;;;2.75;2.75;;;;;11.89;57.97;101453.25;4995437;28;45631;-60
2023/05/16 02:53:45;;;;;;;;;4.00;3.00;;;;;11.87;57.93;101458.13;4994803;28;46497;-62
2023/05/16 02:56:10;;;;;;;;;2.25;2.25;;;;;11.89;58.10;101448.63;4995192;28;45586;-61
2023/05/16 02:58:36;;;;;;;;;1.75;1.75;;;;;11.86;58.46;101448.16;4995212;28;45480;-62
2023/05/16 03:01:01;;;;;;;;;6.50;2.00;;;;;11.89;57.95;101451.38;4993900;28;45597;-60
2023/05/16 03:03:26;;;;;;;;;3.25;1.00;;;;;11.74;58.17;101429.50;4994210;28;45638;-61
2023/05/16 03:05:52;;;;;;;;;3.50;2.00;;;;;11.85;57.82;101457.47;4995058;28;45467;-61
2023/05/16 03:08:17;;;;;;;;;4.25;4.25;;;;;11.74;58.00;101454.25;4977119;28;45389;-61
2023/05/16 03:10:43;;;;;;;;;2.75;2.75;;;;;11.78;58.17;101463.78;4970188;28;45877;-62
2023/05/16 03:13:08;;;;;;;;;2.25;2.00;;;;;11.83;58.47;101459.56;4989996;28;45666;-62
2023/05/16 03:15:34;;;;;;;;;3.50;3.00;;;;;11.91;58.18;101459.44;4990316;28;45386;-61
2023/05/16 03:17:59;;;;;;;;;3.50;3.50;;;;;11.94;57.65;101467.25;4995042;28;45458;-59
2023/05/16 03:20:25;;;;;;;;;3.00;2.75;;;;;11.88;58.17;101465.31;4995049;28;45375;-60
2023/05/16 03:22:51;;;;;;;;;4.75;2.50;;;;;11.94;57.71;101472.75;4994535;28;45372;-62
2023/05/16 03:25:16;;;;;;;;;4.00;2.00;;;;;11.97;57.89;101468.75;4995028;28;45316;-61
2023/05/16 03:27:41;;;;;;;;;3.50;2.50;;;;;11.86;57.84;101464.69;5032371;28;45277;-61
2023/05/16 03:30:08;;;;;;;;;4.00;2.50;;;;;11.84;58.06;101481.38;5018861;28;45320;-61
2023/05/16 03:32:33;;;;;;;;;2.40;2.40;;;;;11.86;58.09;101476.53;5014455;28;46376;-62
2023/05/16 03:34:59;;;;;;;;;7.00;2.25;;;;;11.84;58.11;101483.28;5014551;28;45423;-60
2023/05/16 03:37:25;;;;;;;;;2.00;2.00;;;;;11.82;57.79;101483.50;5014544;28;45292;-60
2023/05/16 03:39:50;;;;;;;;;3.20;1.60;;;;;11.82;58.03;101489.00;5015067;28;45458;-60
2023/05/16 03:42:17;;;;;;;;;4.80;3.00;;;;;11.83;58.12;101495.31;5014075;28;46148;-61
2023/05/16 03:44:43;;;;;;;;;5.00;3.00;;;;;11.69;57.93;101472.41;5014105;28;45387;-60
2023/05/16 03:47:09;;;;;;;;;1.00;1.00;;;;;11.75;58.04;101501.84;5014772;28;45463;-61
2023/05/16 03:49:35;;;;;;;;;4.50;2.00;;;;;11.70;58.30;101491.47;5014380;28;45544;-58
2023/05/16 03:52:02;;;;;;;;;7.60;1.40;;;;;11.62;58.59;101500.69;5014015;28;46216;-62
2023/05/16 03:54:27;;;;;;;;;4.00;3.00;;;;;11.63;58.77;101496.06;5014027;28;45348;-61
2023/05/16 03:56:53;;;;;;;;;6.50;2.00;;;;;11.75;58.00;101501.84;5014266;28;45355;-61
2023/05/16 03:59:18;;;;;;;;;8.00;4.00;;;;;11.72;58.32;101504.97;4996743;28;45568;-61
2023/05/16 04:01:44;;;;;;;;;2.50;2.00;;;;;11.58;58.51;101490.31;5013660;28;45468;-63
2023/05/16 04:04:09;;;;;;;;;5.00;3.00;;;;;11.69;58.19;101505.41;4996301;28;45310;-62
2023/05/16 04:06:35;;;;;;;;;6.25;3.00;;;;;11.66;58.42;101507.50;5014253;28;45687;-61
2023/05/16 04:09:00;;;;;;;;;5.75;3.00;;;;;11.46;58.74;101504.59;5013965;28;45562;-62
2023/05/16 04:11:26;;;;;;;;;2.00;2.00;;;;;11.57;58.79;101507.88;4995942;28;46477;-61
2023/05/16 04:13:52;;;;;;;;;4.00;2.50;;;;;11.50;59.34;101508.66;4979898;28;45525;-61
2023/05/16 04:16:18;;;;;;;;;2.00;2.00;;;;;11.58;58.90;101512.31;5033428;28;45408;-62
2023/05/16 04:18:43;;;;;;;;;3.00;2.75;;;;;11.56;59.02;101512.50;5037203;28;45561;-62
2023/05/16 04:21:13;;;;;;;;;2.00;2.00;;;;;11.56;58.58;101518.00;5037518;28;46274;-62
2023/05/16 04:23:40;;;;;;;;;4.20;2.00;;;;;11.58;59.05;101515.88;5037267;28;45633;-61
2023/05/16 04:26:05;;;;;;;;;0.80;0.80;;;;;11.62;58.56;101517.19;5036992;28;45381;-60
2023/05/16 04:28:31;;;;;;;;;3.75;3.25;;;;;11.65;58.41;101521.44;5037756;28;45538;-60
2023/05/16 04:30:56;;;;;;;;;4.00;1.50;;;;;11.58;58.52;101523.31;5017802;28;46522;-60
2023/05/16 04:33:22;;;;;;;;;2.75;2.75;;;;;11.60;58.68;101523.94;5017354;28;45773;-60
2023/05/16 04:35:48;;;;;;;;;4.75;2.75;;;;;11.59;58.78;101511.25;5018024;28;45401;-63
2023/05/16 04:38:14;;;;;;;;;2.40;2.00;;;;;11.66;58.76;101528.66;5017761;28;45547;-63
2023/05/16 04:40:40;;;;;;;;;6.50;2.25;;;;;11.61;58.33;101526.50;5016905;28;46625;-60
2023/05/16 04:43:07;;;;;;;;;2.60;2.60;;;;;11.53;59.06;101518.41;4998817;28;45374;-60
2023/05/16 04:45:32;;;;;;;;;2.00;2.00;;;;;11.57;58.70;101529.84;5017323;28;45228;-62
2023/05/16 04:47:57;;;;;;;;;6.75;2.25;;;;;11.60;58.64;101544.06;5017472;28;45134;-60
2023/05/16 04:50:23;;;;;;;;;3.50;2.50;;;;;11.58;58.74;101537.88;4998983;28;45495;-62
2023/05/16 04:52:48;;;;;;;;;4.00;2.50;;;;;11.49;59.01;101539.91;5017572;28;45375;-62
2023/05/16 04:55:14;;;;;;;;;2.75;2.75;;;;;11.57;58.88;101541.69;5017258;28;45683;-60
2023/05/16 04:57:40;;;;;;;;;1.60;1.60;;;;;11.64;58.49;101536.25;5017502;28;45730;-62
2023/05/16 05:00:10;;;;;;;;;4.00;2.00;;;;;11.48;58.46;101532.72;5016787;28;45443;-61
2023/05/16 05:02:37;;;;;;;;;3.60;2.00;;;;;11.47;59.18;101549.44;5017030;28;45411;-62
2023/05/16 05:05:03;;;;;;;;;3.60;3.60;;;;;11.46;58.87;101540.34;4999120;28;45340;-62
2023/05/16 05:07:28;;;;;;;;;7.80;3.80;;;;;11.65;58.24;101554.44;4999598;28;45255;-62
2023/05/16 05:09:54;;;;;;;;;5.00;3.50;;;;;11.63;58.60;101559.31;5016869;28;45489;-62
2023/05/16 05:12:21;;;;;;;;;4.60;2.80;;;;;11.55;58.54;101554.78;4998826;28;45336;-62
2023/05/16 05:14:46;;;;;;;;;4.20;2.00;;;;;11.64;58.86;101550.84;5016778;28;45268;-62
2023/05/16 05:17:11;;;;;;;;;4.25;3.50;;;;;11.74;58.73;101553.25;5012163;28;45231;-62
2023/05/16 05:19:37;;;;;;;;;3.50;2.75;;;;;11.75;58.64;101549.44;5029233;28;46094;-62
2023/05/16 05:22:02;;;;;;;;;6.25;3.75;;;;;11.83;58.13;101561.34;5034388;28;45338;-62
2023/05/16 05:24:28;;;;;;;;;4.00;4.00;;;;;11.82;58.46;101559.63;5035586;28;45339;-62
2023/05/16 05:26:54;;;;;;;;;4.50;4.50;;;;;11.72;58.12;101566.34;5037154;28;45259;-63
2023/05/16 05:29:20;;;;;;;;;4.75;3.50;;;;;11.76;58.60;101558.53;5015970;28;45375;-62
2023/05/16 05:31:46;;;;;;;;;7.75;5.00;;;;;11.75;58.21;101565.94;5016516;28;45365;-65
2023/05/16 05:34:11;;;;;;;;;4.50;4.00;;;;;11.73;58.59;101568.03;5015937;28;45234;-64
2023/05/16 05:36:37;;;;;;;;;3.25;3.25;;;;;11.53;58.26;101557.72;5016990;28;45339;-59
2023/05/16 05:39:02;;;;;;;;;4.00;4.00;;;;;11.72;58.47;101573.75;5015968;28;45911;-60
2023/05/16 05:41:28;;;;;;;;;4.25;2.50;;;;;11.80;58.18;101573.63;5016131;28;45220;-61
2023/05/16 05:43:53;;;;;;;;;5.00;3.75;;;;;11.77;58.23;101577.59;5016144;28;45311;-61
2023/05/16 05:46:19;;;;;;;;;5.00;3.00;;;;;11.87;58.15;101570.91;5016167;28;45318;-61
2023/05/16 05:48:44;;;;;;;;;3.50;3.50;;;;;11.81;57.82;101572.56;5016123;28;45435;-61
2023/05/16 05:51:10;;;;;;;;;4.50;1.75;;;;;11.79;58.21;101581.00;5016091;28;45300;-61
2023/05/16 05:53:35;;;;;;;;;2.25;2.25;;;;;11.70;58.11;101576.72;5016062;28;45346;-62
2023/05/16 05:56:01;;;;;;;;;4.00;4.00;;;;;11.80;57.91;101584.63;5016297;28;45358;-61
2023/05/16 05:58:26;;;;;;;;;2.50;2.25;;;;;11.87;58.21;101576.41;5015578;28;46603;-61
2023/05/16 06:00:52;;;;;;;;;7.75;4.00;;;;;11.78;57.99;101565.56;5015929;28;45529;-61
2023/05/16 06:03:19;;;;;;;;;4.75;2.75;;;;;11.90;58.01;101567.75;5015763;28;45386;-61
2023/05/16 06:05:45;;;;;;;;;4.40;4.40;;;;;11.89;58.01;101569.66;5016228;28;45400;-62
2023/05/16 06:08:10;;;;;;;;;2.75;2.75;;;;;11.73;57.71;101543.28;5015803;28;45394;-61
2023/05/16 06:10:36;;;;;;;;;5.50;4.25;;;;;11.85;56.91;101571.09;4997546;28;45268;-62
2023/05/16 06:13:01;;;;;;;;;4.00;3.00;;;;;11.82;56.85;101560.50;5015599;28;45295;-61
2023/05/16 06:15:27;;;;;;;;;2.25;2.25;;;;;11.86;56.80;101585.69;5015696;28;45312;-62
2023/05/16 06:17:52;;;;;;;;;8.50;3.75;;;;;11.74;56.82;101585.41;5015614;28;45694;-62
2023/05/16 06:20:18;;;;;;;;;7.00;2.50;;;;;11.76;56.51;101580.56;5015394;28;45310;-61
2023/05/16 06:22:43;;;;;;;;;5.00;2.50;;;;;11.89;56.15;101599.03;4997266;28;45378;-61
2023/05/16 06:25:09;;;;;;;;;7.25;3.00;;;;;11.95;55.84;101587.25;5015850;28;45391;-61
2023/05/16 06:27:35;;;;;;;;;2.00;1.00;;;;;12.03;55.87;101584.38;4997061;28;46058;-61
2023/05/16 06:30:00;;;;;;;;;3.50;2.50;;;;;12.11;55.14;101593.53;4995417;28;45310;-62
2023/05/16 06:32:26;;;;;;;;;3.50;1.75;;;;;12.14;55.35;101591.22;4995774;28;45855;-62
2023/05/16 06:34:51;;;;;;;;;2.00;2.00;;;;;12.19;55.36;101591.47;4995807;28;45217;-61
2023/05/16 06:37:17;;;;;;;;;2.00;2.00;;;;;12.23;55.16;101586.41;4995711;28;46379;-62
2023/05/16 06:39:43;;;;;;;;;1.00;0.50;;;;;12.16;54.56;101599.25;4994602;28;45429;-62
2023/05/16 06:42:09;;;;;;;;;2.00;0.00;;;;;12.01;54.62;101580.09;4995305;28;45379;-62
2023/05/16 06:44:35;;;;;;;;;3.00;2.40;;;;;12.06;54.38;101597.72;4995846;28;45522;-63
2023/05/16 06:47:00;;;;;;;;;3.00;2.75;;;;;12.07;54.39;101617.84;4976720;28;47348;-62
2023/05/16 06:49:26;;;;;;;;;1.50;1.50;;;;;11.99;54.48;101610.56;4995407;28;45433;-61
2023/05/16 06:51:51;;;;;;;;;1.00;1.00;;;;;11.99;55.11;101616.06;4995331;28;45312;-62
2023/05/16 06:54:17;;;;;;;;;5.25;2.75;;;;;12.05;54.76;101618.06;4977811;28;45535;-62
2023/05/16 06:56:43;;;;;;;;;2.00;2.00;;;;;12.10;54.35;101606.44;4994998;28;45758;-61
2023/05/16 06:59:09;;;;;;;;;4.40;2.20;;;;;12.20;54.61;101614.34;4995189;28;45474;-61
2023/05/16 07:01:34;;;;;;;;;3.50;2.50;;;;;12.20;54.42;101606.94;4995467;28;45364;-62
2023/05/16 07:04:00;;;;;;;;;2.00;1.00;;;;;12.27;53.85;101606.13;4977512;28;45375;-62
2023/05/16 07:06:26;;;;;;;;;4.00;2.25;;;;;12.36;54.36;101604.91;4995158;28;46246;-61
2023/05/16 07:08:51;;;;;;;;;4.50;3.00;;;;;12.48;54.16;101618.94;4995086;28;45539;-62
2023/05/16 07:11:16;;;;;;;;;3.50;3.00;;;;;12.51;53.82;101626.81;4995260;28;45452;-62
2023/05/16 07:13:42;;;;;;;;;2.00;2.00;;;;;12.56;53.94;101609.66;4995240;28;45403;-63
2023/05/16 07:16:07;;;;;;;;;4.00;1.00;;;;;12.58;53.43;101618.56;4994800;28;45969;-62
2023/05/16 07:18:33;;;;;;;;;4.00;3.00;;;;;12.62;53.87;101625.38;4995289;28;45391;-62
2023/05/16 07:20:59;;;;;;;;;1.75;1.75;;;;;12.68;53.59;101629.22;4976906;28;45448;-62
2023/05/16 07:23:25;;;;;;;;;1.00;1.00;;;;;12.68;53.79;101621.81;4995049;28;45426;-62
2023/05/16 07:25:52;;;;;;;;;2.60;1.00;;;;;12.72;53.41;101625.00;4980957;28;47153;-61
2023/05/16 07:28:18;;;;;;;;;2.00;2.00;;;;;12.73;52.88;101632.22;5014702;28;45347;-62
2023/05/16 07:30:43;;;;;;;;;2.00;1.00;;;;;12.72;52.89;101636.03;4983665;28;45266;-61
2023/05/16 07:33:09;;;;;;;;;2.00;1.25;;;;;12.86;52.62;101647.97;4997336;28;45183;-62
2023/05/16 07:35:34;;;;;;;;;3.25;2.25;;;;;12.90;52.24;101637.38;5014773;28;45722;-61
2023/05/16 07:38:00;;;;;;;;;1.75;0.50;;;;;12.91;52.55;101633.56;5014641;28;45273;-62
2023/05/16 07:40:28;;;;;;;;;2.25;2.00;;;;;12.88;52.31;101619.13;5014779;28;45355;-62
2023/05/16 07:42:53;;;;;;;;;3.80;2.00;;;;;13.06;52.57;101634.25;5014936;28;45439;-62
2023/05/16 07:45:19;;;;;;;;;2.75;1.50;;;;;12.95;51.67;101626.56;5014065;28;46240;-60
2023/05/16 07:47:44;;;;;;;;;2.50;2.25;;;;;13.05;52.10;101637.19;5012332;28;45407;-62
2023/05/16 07:50:10;;;;;;;;;2.00;2.00;;;;;13.14;52.19;101639.56;4996726;28;45355;-62
2023/05/16 07:52:36;;;;;;;;;4.75;2.00;;;;;13.09;51.77;101627.47;4996796;28;45372;-62
2023/05/16 07:55:02;;;;;;;;;1.75;1.75;;;;;13.12;52.38;101633.41;5014125;28;45294;-63
2023/05/16 07:57:27;;;;;;;;;3.20;2.20;;;;;13.26;51.69;101633.47;5014419;28;45427;-61
2023/05/16 07:59:53;;;;;;;;;3.00;1.00;;;;;13.19;51.90;101616.91;5029832;28;45409;-62
2023/05/16 08:02:19;;;;;;;;;2.50;1.00;;;;;13.35;52.27;101610.13;5014330;28;45656;-62
2023/05/16 08:04:44;;;;;;;;;2.75;2.00;;;;;13.56;51.38;101616.59;5014040;28;47455;-62
2023/05/16 08:07:10;;;;;;;;;5.75;2.50;;;;;13.72;51.28;101623.56;5012846;28;46197;-62
2023/05/16 08:09:36;;;;;;;;;1.50;1.50;;;;;13.71;51.09;101621.88;5014762;28;45546;-61
2023/05/16 08:12:02;;;;;;;;;2.00;2.00;;;;;13.81;50.20;101621.47;4989937;28;45460;-62
2023/05/16 08:14:32;;;;;;;;;4.40;4.40;;;;;13.83;50.50;101630.41;5031579;28;45434;-62
2023/05/16 08:17:00;;;;;;;;;2.80;1.80;;;;;13.91;50.08;101632.94;5025110;28;45380;-62
2023/05/16 08:19:26;;;;;;;;;2.80;2.00;;;;;13.92;49.44;101633.75;5013701;28;45388;-61
2023/05/16 08:21:51;;;;;;;;;5.50;3.00;;;;;14.08;49.72;101633.34;4994755;28;45522;-61
2023/05/16 08:24:17;;;;;;;;;3.50;1.75;;;;;14.18;49.76;101623.75;5012339;28;46473;-60
2023/05/16 08:26:42;;;;;;;;;2.25;1.25;;;;;14.28;49.39;101637.13;5023312;28;45517;-61
2023/05/16 08:29:08;;;;;;;;;1.50;1.50;;;;;14.25;48.64;101632.06;4994233;28;45405;-61
2023/05/16 08:31:33;;;;;;;;;1.00;1.00;;;;;14.30;48.70;101635.03;5003909;28;45529;-61
2023/05/16 08:34:00;;;;;;;;;2.25;2.00;;;;;14.26;48.00;101636.50;5033797;28;45633;-62
2023/05/16 08:36:27;;;;;;;;;4.80;2.00;;;;;14.19;47.55;101626.31;5032862;28;45425;-61
2023/05/16 08:38:52;;;;;;;;;1.20;1.20;;;;;14.14;48.06;101631.63;4999038;28;45406;-61
2023/05/16 08:41:18;;;;;;;;;2.00;1.50;;;;;14.04;47.70;101631.22;5034065;28;45641;-61
2023/05/16 08:43:43;;;;;;;;;2.25;1.00;;;;;13.87;48.21;101636.34;4998543;28;47492;-61
2023/05/16 08:46:09;;;;;;;;;5.00;2.00;;;;;13.84;47.96;101626.56;5034141;28;45466;-61
2023/05/16 08:48:36;;;;;;;;;3.00;2.00;;;;;13.91;48.57;101632.94;5020495;28;45710;-60
2023/05/16 08:51:02;;;;;;;;;2.00;2.00;;;;;14.13;48.40;101634.63;5004831;28;45545;-60
2023/05/16 08:53:32;;;;;;;;;4.80;2.80;;;;;14.20;48.12;101614.22;4999904;28;46358;-61
2023/05/16 08:55:58;;;;;;;;;2.00;2.00;;;;;14.36;47.71;101636.94;5018662;28;45323;-60
2023/05/16 08:58:23;;;;;;;;;1.00;1.00;;;;;14.29;47.31;101633.34;4995198;28;45401;-61
2023/05/16 09:00:49;;;;;;;;;1.00;1.00;;;;;14.26;47.42;101634.59;5015119;28;45357;-59
2023/05/16 09:03:15;;;;;;;;;1.75;1.75;;;;;14.08;46.70;101630.59;5015985;28;45753;-60
2023/05/16 09:05:40;;;;;;;;;5.75;2.50;;;;;14.04;46.86;101637.59;4996418;28;45427;-60
2023/05/16 09:08:06;;;;;;;;;2.00;2.00;;;;;14.02;46.12;101636.09;5004302;28;45769;-59
2023/05/16 09:10:31;;;;;;;;;1.75;1.75;;;;;14.08;46.54;101621.44;5005885;28;45727;-60
2023/05/16 09:12:57;;;;;;;;;2.00;2.00;;;;;14.18;46.60;101632.03;5015497;28;45720;-60
2023/05/16 09:15:22;;;;;;;;;2.00;2.00;;;;;14.14;46.70;101617.81;5015526;28;45359;-60
2023/05/16 09:17:47;;;;;;;;;1.25;1.25;;;;;14.23;46.91;101637.78;4997690;28;45376;-60
2023/05/16 09:20:17;;;;;;;;;3.00;1.50;;;;;14.23;46.29;101633.13;5014381;28;45408;-60
2023/05/16 09:22:53;;;;;;;;;1.00;1.00;;;;;14.20;46.02;101633.53;4980943;28;48695;-60
2023/05/16 09:25:19;;;;;;;;;3.00;1.80;;;;;14.31;46.67;101648.59;5015594;28;45458;-60
2023/05/16 09:27:47;;;;;;;;;3.00;1.60;;;;;14.41;45.85;101626.06;5015622;28;45272;-60
2023/05/16 09:30:14;;;;;;;;;3.80;1.40;;;;;14.49;45.83;101617.56;5015300;28;45457;-60
2023/05/16 09:32:42;;;;;;;;;1.20;1.20;;;;;14.67;45.60;101627.03;4994530;28;45557;-61
2023/05/16 09:35:09;;;;;;;;;1.00;1.00;;;;;14.83;45.93;101633.19;5003176;28;45351;-62
2023/05/16 09:37:34;;;;;;;;;0.00;0.00;;;;;14.72;45.18;101621.72;4981408;28;45545;-60
2023/05/16 09:40:00;;;;;;;;;5.75;3.00;;;;;14.86;45.64;101627.22;5015734;28;45577;-61
2023/05/16 09:42:25;;;;;;;;;2.00;0.75;;;;;14.88;44.78;101631.47;5013904;28;46187;-62
2023/05/16 09:44:52;;;;;;;;;2.00;2.00;;;;;14.85;44.58;101628.28;5004971;28;45485;-61
2023/05/16 09:47:18;;;;;;;;;2.40;1.80;;;;;14.87;45.31;101631.69;4980903;28;45473;-61
2023/05/16 09:49:45;;;;;;;;;1.50;1.50;;;;;14.90;45.20;101637.63;4997934;28;45425;-61
2023/05/16 09:52:10;;;;;;;;;3.00;2.00;;;;;14.91;45.25;101624.66;5014923;28;46550;-61
2023/05/16 09:54:36;;;;;;;;;5.50;3.50;;;;;14.89;45.28;101632.31;5002570;28;45902;-62
2023/05/16 09:57:01;;;;;;;;;2.00;2.00;;;;;14.92;44.78;101631.88;5033596;28;45444;-61
2023/05/16 09:59:30;;;;;;;;;1.50;1.50;;;;;14.85;43.44;101631.06;5030320;28;45373;-61
2023/05/16 10:01:57;;;;;;;;;2.20;1.80;;;;;14.79;44.52;101641.09;5020124;28;46072;-61
2023/05/16 10:04:23;;;;;;;;;2.60;2.20;;;;;14.88;44.66;101634.22;5010397;28;45368;-61
2023/05/16 10:06:50;;;;;;;;;1.25;1.25;;;;;14.97;44.12;101637.59;5014831;28;45522;-61
2023/05/16 10:09:15;;;;;;;;;0.00;0.00;;;;;15.00;44.13;101626.09;5015625;28;45404;-62
2023/05/16 10:11:41;;;;;;;;;2.75;2.00;;;;;15.18;43.84;101636.44;4995261;28;46020;-61
2023/05/16 10:14:08;;;;;;;;;2.00;1.00;;;;;15.18;43.34;101621.75;5013796;28;45248;-62
2023/05/16 10:16:34;;;;;;;;;3.40;2.40;;;;;15.15;43.37;101614.75;5009009;28;45417;-63
2023/05/16 10:19:00;;;;;;;;;2.00;2.00;;;;;15.23;43.46;101633.00;5012940;28;45834;-63
2023/05/16 10:21:26;;;;;;;;;1.40;1.40;;;;;15.22;42.91;101623.03;5013816;28;45611;-62
2023/05/16 10:23:51;;;;;;;;;1.50;1.50;;;;;15.25;43.07;101628.09;5013692;28;45390;-62
2023/05/16 10:26:17;;;;;;;;;3.00;1.75;;;;;15.21;42.47;101624.06;5005395;28;45514;-62
2023/05/16 10:28:42;;;;;;;;;2.75;2.75;;;;;15.31;42.99;101626.34;4992876;28;45370;-63
2023/05/16 10:31:11;;;;;;;;;5.00;5.00;;;;;15.40;42.20;101613.97;4985910;28;45728;-63
2023/05/16 10:33:37;;;;;;;;;1.20;1.00;;;;;15.53;42.84;101632.38;4961392;28;45428;-61
2023/05/16 10:36:04;;;;;;;;;5.80;3.00;;;;;15.55;42.46;101624.72;4976189;28;45328;-61
2023/05/16 10:38:29;;;;;;;;;4.40;2.00;;;;;15.67;42.22;101618.44;4994160;28;45384;-62
2023/05/16 10:40:55;;;;;;;;;4.25;2.25;;;;;15.77;41.66;101626.25;4973206;28;46194;-61
2023/05/16 10:43:29;;;;;;;;;3.00;3.00;;;;;15.89;42.27;101618.06;4958370;28;46092;-62
2023/05/16 10:46:01;;;;;;;;;2.40;2.40;;;;;15.94;41.88;101609.94;4993446;28;45346;-63
2023/05/16 10:48:31;;;;;;;;;2.80;1.60;;;;;15.98;42.32;101625.91;4993350;28;45372;-62
2023/05/16 10:50:57;;;;;;;;;2.80;1.80;;;;;15.89;41.98;101620.84;4967148;28;47654;-62
2023/05/16 10:53:28;;;;;;;;;1.50;1.50;;;;;15.78;41.39;101628.78;4994202;28;45438;-63
2023/05/16 10:56:00;;;;;;;;;6.40;2.00;;;;;15.81;41.84;101620.00;4993984;28;45431;-63
2023/05/16 10:58:37;;;;;;;;;3.80;3.80;;;;;15.80;41.74;101623.88;4995197;28;45646;-63
2023/05/16 11:01:18;;;;;;;;;2.80;2.80;;;;;15.83;40.92;101625.34;4995114;28;46086;-63
2023/05/16 11:04:10;;;;;;;;;1.40;1.40;;;;;15.99;41.22;101615.66;4977497;28;45912;-62
2023/05/16 11:06:41;;;;;;;;;2.20;2.00;;;;;16.19;41.70;101612.69;4994233;28;45394;-62
2023/05/16 11:09:12;;;;;;;;;12.60;9.00;;;;;16.32;40.62;101620.00;4995647;28;45208;-63
2023/05/16 11:11:47;;;;;;;;;3.20;3.20;;;;;16.28;40.82;101602.19;4985853;28;45451;-58
2023/05/16 11:14:23;;;;;;;;;2.00;2.00;;;;;16.26;40.53;101613.47;4991821;28;45465;-59
2023/05/16 11:17:02;;;;;;;;;5.00;3.80;;;;;16.28;40.76;101613.25;5010593;28;45398;-58
2023/05/16 11:19:40;;;;;;;;;2.00;2.00;;;;;16.35;40.96;101605.72;4989432;28;45375;-61
2023/05/16 11:22:09;;;;;;;;;2.00;2.00;;;;;16.38;40.81;101618.22;4991838;28;46870;-62
2023/05/16 11:24:35;;;;;;;;;2.20;2.20;;;;;16.31;40.52;101617.47;4993716;28;45597;-60